sensor_id;sensor_type;location;lat;lon;timestamp;P1;durP1;ratioP1;P2;durP2;ratioP2
12445;SDS011;6287;50.984;7.022;2023-02-08T00:00:28;12.30;;;5.67;;
12445;SDS011;6287;50.984;7.022;2023-02-08T00:02:56;8.10;;;4.93;;
12445;SDS011;6287;50.984;7.022;2023-02-08T00:05:22;10.07;;;5.17;;
12445;SDS011;6287;50.984;7.022;2023-02-08T00:07:52;6.97;;;5.17;;
12445;SDS011;6287;50.984;7.022;2023-02-08T00:10:20;8.90;;;5.23;;
12445;SDS011;6287;50.984;7.022;2023-02-08T00:12:46;10.10;;;6.17;;
12445;SDS011;6287;50.984;7.022;2023-02-08T00:15:12;9.03;;;5.07;;
12445;SDS011;6287;50.984;7.022;2023-02-08T00:17:37;11.37;;;6.20;;
12445;SDS011;6287;50.984;7.022;2023-02-08T00:20:05;8.00;;;4.73;;
12445;SDS011;6287;50.984;7.022;2023-02-08T00:22:34;10.67;;;5.27;;
12445;SDS011;6287;50.984;7.022;2023-02-08T00:25:03;12.70;;;5.70;;
12445;SDS011;6287;50.984;7.022;2023-02-08T00:27:32;8.87;;;5.20;;
12445;SDS011;6287;50.984;7.022;2023-02-08T00:30:00;9.70;;;5.87;;
12445;SDS011;6287;50.984;7.022;2023-02-08T00:32:26;9.73;;;5.53;;
12445;SDS011;6287;50.984;7.022;2023-02-08T00:34:54;10.23;;;5.87;;
12445;SDS011;6287;50.984;7.022;2023-02-08T00:37:24;8.50;;;4.97;;
12445;SDS011;6287;50.984;7.022;2023-02-08T00:39:50;9.17;;;5.27;;
12445;SDS011;6287;50.984;7.022;2023-02-08T00:42:17;9.70;;;4.73;;
12445;SDS011;6287;50.984;7.022;2023-02-08T00:44:45;14.43;;;7.17;;
12445;SDS011;6287;50.984;7.022;2023-02-08T00:47:13;11.23;;;5.50;;
12445;SDS011;6287;50.984;7.022;2023-02-08T00:49:41;10.07;;;6.10;;
12445;SDS011;6287;50.984;7.022;2023-02-08T00:52:09;9.33;;;4.90;;
12445;SDS011;6287;50.984;7.022;2023-02-08T00:54:34;11.87;;;5.27;;
12445;SDS011;6287;50.984;7.022;2023-02-08T00:57:00;12.50;;;5.50;;
12445;SDS011;6287;50.984;7.022;2023-02-08T00:59:26;8.23;;;4.97;;
12445;SDS011;6287;50.984;7.022;2023-02-08T01:01:51;14.70;;;5.27;;
12445;SDS011;6287;50.984;7.022;2023-02-08T01:04:19;9.73;;;4.80;;
12445;SDS011;6287;50.984;7.022;2023-02-08T01:06:47;12.57;;;5.40;;
12445;SDS011;6287;50.984;7.022;2023-02-08T01:09:13;8.63;;;5.40;;
12445;SDS011;6287;50.984;7.022;2023-02-08T01:11:38;8.67;;;5.13;;
12445;SDS011;6287;50.984;7.022;2023-02-08T01:14:06;8.53;;;4.53;;
12445;SDS011;6287;50.984;7.022;2023-02-08T01:16:35;9.10;;;4.20;;
12445;SDS011;6287;50.984;7.022;2023-02-08T01:19:01;8.10;;;4.30;;
12445;SDS011;6287;50.984;7.022;2023-02-08T01:21:29;8.20;;;4.77;;
12445;SDS011;6287;50.984;7.022;2023-02-08T01:23:57;8.50;;;4.20;;
12445;SDS011;6287;50.984;7.022;2023-02-08T01:26:24;7.70;;;4.77;;
12445;SDS011;6287;50.984;7.022;2023-02-08T01:28:50;7.77;;;4.97;;
12445;SDS011;6287;50.984;7.022;2023-02-08T01:31:18;7.80;;;4.70;;
12445;SDS011;6287;50.984;7.022;2023-02-08T01:33:45;5.73;;;4.80;;
12445;SDS011;6287;50.984;7.022;2023-02-08T01:36:14;8.13;;;5.30;;
12445;SDS011;6287;50.984;7.022;2023-02-08T01:38:42;6.70;;;5.00;;
12445;SDS011;6287;50.984;7.022;2023-02-08T01:41:23;6.87;;;4.77;;
12445;SDS011;6287;50.984;7.022;2023-02-08T01:46:36;11.03;;;5.20;;
12445;SDS011;6287;50.984;7.022;2023-02-08T01:49:17;9.13;;;4.97;;
12445;SDS011;6287;50.984;7.022;2023-02-08T01:54:26;7.07;;;4.43;;
12445;SDS011;6287;50.984;7.022;2023-02-08T01:56:55;7.60;;;5.10;;
12445;SDS011;6287;50.984;7.022;2023-02-08T02:02:13;12.03;;;4.53;;
12445;SDS011;6287;50.984;7.022;2023-02-08T02:04:44;9.27;;;4.83;;
12445;SDS011;6287;50.984;7.022;2023-02-08T02:07:12;5.97;;;3.73;;
12445;SDS011;6287;50.984;7.022;2023-02-08T02:12:17;8.70;;;4.47;;
12445;SDS011;6287;50.984;7.022;2023-02-08T02:14:46;8.23;;;4.90;;
12445;SDS011;6287;50.984;7.022;2023-02-08T02:17:12;7.70;;;4.93;;
12445;SDS011;6287;50.984;7.022;2023-02-08T02:33:10;5.73;;;3.80;;
12445;SDS011;6287;50.984;7.022;2023-02-08T02:35:46;7.30;;;4.60;;
12445;SDS011;6287;50.984;7.022;2023-02-08T02:38:46;6.73;;;4.40;;
12445;SDS011;6287;50.984;7.022;2023-02-08T02:41:25;18.57;;;4.37;;
12445;SDS011;6287;50.984;7.022;2023-02-08T02:44:28;10.37;;;4.80;;
12445;SDS011;6287;50.984;7.022;2023-02-08T02:47:08;8.67;;;5.43;;
12445;SDS011;6287;50.984;7.022;2023-02-08T02:49:45;7.93;;;4.47;;
12445;SDS011;6287;50.984;7.022;2023-02-08T02:52:23;8.90;;;5.00;;
12445;SDS011;6287;50.984;7.022;2023-02-08T02:54:57;11.80;;;4.70;;
12445;SDS011;6287;50.984;7.022;2023-02-08T02:57:31;8.33;;;5.27;;
12445;SDS011;6287;50.984;7.022;2023-02-08T02:59:59;7.00;;;4.53;;
12445;SDS011;6287;50.984;7.022;2023-02-08T03:02:30;12.83;;;6.20;;
12445;SDS011;6287;50.984;7.022;2023-02-08T03:04:58;9.43;;;5.20;;
12445;SDS011;6287;50.984;7.022;2023-02-08T03:13:10;6.80;;;4.57;;
12445;SDS011;6287;50.984;7.022;2023-02-08T03:21:17;11.43;;;5.03;;
12445;SDS011;6287;50.984;7.022;2023-02-08T03:26:35;7.40;;;4.23;;
12445;SDS011;6287;50.984;7.022;2023-02-08T03:29:12;6.80;;;4.80;;
12445;SDS011;6287;50.984;7.022;2023-02-08T03:32:16;8.13;;;4.53;;
12445;SDS011;6287;50.984;7.022;2023-02-08T03:34:45;9.60;;;4.70;;
12445;SDS011;6287;50.984;7.022;2023-02-08T03:37:37;7.07;;;4.33;;
12445;SDS011;6287;50.984;7.022;2023-02-08T03:42:49;9.47;;;4.70;;
12445;SDS011;6287;50.984;7.022;2023-02-08T03:45:19;8.43;;;4.30;;
12445;SDS011;6287;50.984;7.022;2023-02-08T03:47:48;8.97;;;4.57;;
12445;SDS011;6287;50.984;7.022;2023-02-08T03:50:20;6.13;;;4.57;;
12445;SDS011;6287;50.984;7.022;2023-02-08T03:52:48;7.43;;;3.80;;
12445;SDS011;6287;50.984;7.022;2023-02-08T03:55:17;5.33;;;3.87;;
12445;SDS011;6287;50.984;7.022;2023-02-08T03:57:48;7.60;;;5.40;;
12445;SDS011;6287;50.984;7.022;2023-02-08T04:00:29;5.57;;;3.97;;
12445;SDS011;6287;50.984;7.022;2023-02-08T04:03:04;7.93;;;4.57;;
12445;SDS011;6287;50.984;7.022;2023-02-08T04:05:44;6.07;;;4.57;;
12445;SDS011;6287;50.984;7.022;2023-02-08T04:08:10;7.13;;;4.20;;
12445;SDS011;6287;50.984;7.022;2023-02-08T04:10:39;7.43;;;4.57;;
12445;SDS011;6287;50.984;7.022;2023-02-08T04:13:07;9.03;;;3.97;;
12445;SDS011;6287;50.984;7.022;2023-02-08T04:15:32;7.17;;;4.43;;
12445;SDS011;6287;50.984;7.022;2023-02-08T04:18:00;7.33;;;4.37;;
12445;SDS011;6287;50.984;7.022;2023-02-08T04:20:26;8.10;;;3.83;;
12445;SDS011;6287;50.984;7.022;2023-02-08T04:22:52;7.53;;;4.67;;
12445;SDS011;6287;50.984;7.022;2023-02-08T04:25:17;4.63;;;3.20;;
12445;SDS011;6287;50.984;7.022;2023-02-08T04:27:43;9.33;;;4.20;;
12445;SDS011;6287;50.984;7.022;2023-02-08T04:30:09;8.37;;;3.60;;
12445;SDS011;6287;50.984;7.022;2023-02-08T04:32:35;6.57;;;4.77;;
12445;SDS011;6287;50.984;7.022;2023-02-08T04:35:00;8.57;;;4.53;;
12445;SDS011;6287;50.984;7.022;2023-02-08T04:37:31;4.67;;;3.43;;
12445;SDS011;6287;50.984;7.022;2023-02-08T04:40:02;6.00;;;4.07;;
12445;SDS011;6287;50.984;7.022;2023-02-08T04:42:28;7.77;;;4.50;;
12445;SDS011;6287;50.984;7.022;2023-02-08T04:44:54;5.90;;;3.87;;
12445;SDS011;6287;50.984;7.022;2023-02-08T04:47:19;7.03;;;3.60;;
12445;SDS011;6287;50.984;7.022;2023-02-08T04:49:45;6.83;;;4.07;;
12445;SDS011;6287;50.984;7.022;2023-02-08T04:52:13;8.70;;;4.37;;
12445;SDS011;6287;50.984;7.022;2023-02-08T04:54:41;7.13;;;4.10;;
12445;SDS011;6287;50.984;7.022;2023-02-08T04:57:11;5.77;;;3.53;;
12445;SDS011;6287;50.984;7.022;2023-02-08T04:59:38;8.97;;;4.30;;
12445;SDS011;6287;50.984;7.022;2023-02-08T05:02:05;5.30;;;3.83;;
12445;SDS011;6287;50.984;7.022;2023-02-08T05:04:31;10.90;;;4.27;;
12445;SDS011;6287;50.984;7.022;2023-02-08T05:06:57;7.03;;;4.33;;
12445;SDS011;6287;50.984;7.022;2023-02-08T05:09:25;7.20;;;4.10;;
12445;SDS011;6287;50.984;7.022;2023-02-08T05:11:51;6.70;;;4.00;;
12445;SDS011;6287;50.984;7.022;2023-02-08T05:14:18;8.40;;;4.20;;
12445;SDS011;6287;50.984;7.022;2023-02-08T05:16:44;6.07;;;3.77;;
12445;SDS011;6287;50.984;7.022;2023-02-08T05:19:12;11.27;;;4.53;;
12445;SDS011;6287;50.984;7.022;2023-02-08T05:21:40;8.47;;;4.57;;
12445;SDS011;6287;50.984;7.022;2023-02-08T05:24:05;8.80;;;4.53;;
12445;SDS011;6287;50.984;7.022;2023-02-08T05:26:31;8.13;;;4.13;;
12445;SDS011;6287;50.984;7.022;2023-02-08T05:28:57;8.43;;;3.60;;
12445;SDS011;6287;50.984;7.022;2023-02-08T05:31:23;4.43;;;3.73;;
12445;SDS011;6287;50.984;7.022;2023-02-08T05:33:49;7.67;;;4.27;;
12445;SDS011;6287;50.984;7.022;2023-02-08T05:36:19;6.43;;;4.03;;
12445;SDS011;6287;50.984;7.022;2023-02-08T05:38:47;7.63;;;4.20;;
12445;SDS011;6287;50.984;7.022;2023-02-08T05:41:17;7.50;;;3.97;;
12445;SDS011;6287;50.984;7.022;2023-02-08T05:43:43;6.13;;;4.10;;
12445;SDS011;6287;50.984;7.022;2023-02-08T05:46:09;4.30;;;3.73;;
12445;SDS011;6287;50.984;7.022;2023-02-08T05:48:36;7.73;;;4.23;;
12445;SDS011;6287;50.984;7.022;2023-02-08T05:51:02;5.97;;;4.47;;
12445;SDS011;6287;50.984;7.022;2023-02-08T05:53:30;8.53;;;4.93;;
12445;SDS011;6287;50.984;7.022;2023-02-08T05:55:58;7.37;;;4.30;;
12445;SDS011;6287;50.984;7.022;2023-02-08T05:58:26;4.93;;;4.13;;
12445;SDS011;6287;50.984;7.022;2023-02-08T06:00:52;8.77;;;4.10;;
12445;SDS011;6287;50.984;7.022;2023-02-08T06:03:17;6.30;;;4.43;;
12445;SDS011;6287;50.984;7.022;2023-02-08T06:05:43;8.10;;;3.80;;
12445;SDS011;6287;50.984;7.022;2023-02-08T06:08:09;9.53;;;4.23;;
12445;SDS011;6287;50.984;7.022;2023-02-08T06:10:35;8.90;;;4.10;;
12445;SDS011;6287;50.984;7.022;2023-02-08T06:13:04;7.40;;;4.37;;
12445;SDS011;6287;50.984;7.022;2023-02-08T06:15:30;7.53;;;4.50;;
12445;SDS011;6287;50.984;7.022;2023-02-08T06:17:55;7.10;;;4.37;;
12445;SDS011;6287;50.984;7.022;2023-02-08T06:20:21;6.00;;;3.90;;
12445;SDS011;6287;50.984;7.022;2023-02-08T06:22:52;6.03;;;3.63;;
12445;SDS011;6287;50.984;7.022;2023-02-08T06:25:18;7.60;;;4.47;;
12445;SDS011;6287;50.984;7.022;2023-02-08T06:27:46;6.30;;;4.37;;
12445;SDS011;6287;50.984;7.022;2023-02-08T06:30:14;8.30;;;4.73;;
12445;SDS011;6287;50.984;7.022;2023-02-08T06:32:40;8.07;;;4.50;;
12445;SDS011;6287;50.984;7.022;2023-02-08T06:35:05;5.17;;;4.10;;
12445;SDS011;6287;50.984;7.022;2023-02-08T06:37:33;12.40;;;4.80;;
12445;SDS011;6287;50.984;7.022;2023-02-08T06:39:59;9.07;;;4.90;;
12445;SDS011;6287;50.984;7.022;2023-02-08T06:42:26;7.00;;;4.83;;
12445;SDS011;6287;50.984;7.022;2023-02-08T06:44:52;8.97;;;4.33;;
12445;SDS011;6287;50.984;7.022;2023-02-08T06:47:22;6.20;;;4.20;;
12445;SDS011;6287;50.984;7.022;2023-02-08T06:49:49;8.80;;;5.78;;
12445;SDS011;6287;50.984;7.022;2023-02-08T06:52:16;9.43;;;4.87;;
12445;SDS011;6287;50.984;7.022;2023-02-08T06:54:46;7.43;;;5.00;;
12445;SDS011;6287;50.984;7.022;2023-02-08T06:57:14;5.27;;;3.67;;
12445;SDS011;6287;50.984;7.022;2023-02-08T06:59:40;6.63;;;4.27;;
12445;SDS011;6287;50.984;7.022;2023-02-08T07:02:13;10.10;;;5.17;;
12445;SDS011;6287;50.984;7.022;2023-02-08T07:04:41;6.23;;;3.90;;
12445;SDS011;6287;50.984;7.022;2023-02-08T07:07:07;5.83;;;4.27;;
12445;SDS011;6287;50.984;7.022;2023-02-08T07:09:34;8.57;;;4.40;;
12445;SDS011;6287;50.984;7.022;2023-02-08T07:12:02;6.87;;;5.20;;
12445;SDS011;6287;50.984;7.022;2023-02-08T07:14:31;6.33;;;4.30;;
12445;SDS011;6287;50.984;7.022;2023-02-08T07:17:00;6.20;;;4.30;;
12445;SDS011;6287;50.984;7.022;2023-02-08T07:19:26;9.07;;;5.07;;
12445;SDS011;6287;50.984;7.022;2023-02-08T07:21:55;9.53;;;4.67;;
12445;SDS011;6287;50.984;7.022;2023-02-08T07:24:21;9.00;;;4.67;;
12445;SDS011;6287;50.984;7.022;2023-02-08T07:26:47;9.57;;;4.60;;
12445;SDS011;6287;50.984;7.022;2023-02-08T07:29:13;8.93;;;4.43;;
12445;SDS011;6287;50.984;7.022;2023-02-08T07:31:39;8.60;;;4.33;;
12445;SDS011;6287;50.984;7.022;2023-02-08T07:34:04;8.17;;;5.07;;
12445;SDS011;6287;50.984;7.022;2023-02-08T07:36:30;5.73;;;4.23;;
12445;SDS011;6287;50.984;7.022;2023-02-08T07:39:02;9.50;;;4.80;;
12445;SDS011;6287;50.984;7.022;2023-02-08T07:41:30;6.73;;;4.57;;
12445;SDS011;6287;50.984;7.022;2023-02-08T07:43:58;13.70;;;4.43;;
12445;SDS011;6287;50.984;7.022;2023-02-08T07:46:26;7.07;;;4.90;;
12445;SDS011;6287;50.984;7.022;2023-02-08T07:48:52;8.90;;;4.80;;
12445;SDS011;6287;50.984;7.022;2023-02-08T07:51:18;6.03;;;4.07;;
12445;SDS011;6287;50.984;7.022;2023-02-08T07:53:43;6.60;;;4.20;;
12445;SDS011;6287;50.984;7.022;2023-02-08T07:56:09;9.57;;;4.47;;
12445;SDS011;6287;50.984;7.022;2023-02-08T07:58:37;7.67;;;4.97;;
12445;SDS011;6287;50.984;7.022;2023-02-08T08:01:04;10.03;;;5.00;;
12445;SDS011;6287;50.984;7.022;2023-02-08T08:03:30;7.13;;;4.67;;
12445;SDS011;6287;50.984;7.022;2023-02-08T08:05:56;5.97;;;4.03;;
12445;SDS011;6287;50.984;7.022;2023-02-08T08:08:21;5.10;;;4.57;;
12445;SDS011;6287;50.984;7.022;2023-02-08T08:10:49;6.70;;;4.20;;
12445;SDS011;6287;50.984;7.022;2023-02-08T08:13:17;8.90;;;4.47;;
12445;SDS011;6287;50.984;7.022;2023-02-08T08:15:42;5.23;;;3.70;;
12445;SDS011;6287;50.984;7.022;2023-02-08T08:18:13;6.60;;;3.93;;
12445;SDS011;6287;50.984;7.022;2023-02-08T08:20:38;9.87;;;4.63;;
12445;SDS011;6287;50.984;7.022;2023-02-08T08:23:06;5.70;;;3.90;;
12445;SDS011;6287;50.984;7.022;2023-02-08T08:25:32;6.77;;;4.43;;
12445;SDS011;6287;50.984;7.022;2023-02-08T08:28:00;9.37;;;4.30;;
12445;SDS011;6287;50.984;7.022;2023-02-08T08:30:26;7.83;;;4.67;;
12445;SDS011;6287;50.984;7.022;2023-02-08T08:32:52;7.50;;;4.53;;
12445;SDS011;6287;50.984;7.022;2023-02-08T08:35:17;14.77;;;5.73;;
12445;SDS011;6287;50.984;7.022;2023-02-08T08:37:45;9.57;;;4.33;;
12445;SDS011;6287;50.984;7.022;2023-02-08T08:40:13;7.93;;;4.50;;
12445;SDS011;6287;50.984;7.022;2023-02-08T08:42:40;5.27;;;3.70;;
12445;SDS011;6287;50.984;7.022;2023-02-08T08:45:06;8.70;;;4.47;;
12445;SDS011;6287;50.984;7.022;2023-02-08T08:47:32;6.93;;;4.20;;
12445;SDS011;6287;50.984;7.022;2023-02-08T08:50:03;7.63;;;4.90;;
12445;SDS011;6287;50.984;7.022;2023-02-08T08:52:31;8.43;;;4.10;;
12445;SDS011;6287;50.984;7.022;2023-02-08T08:54:56;7.10;;;3.77;;
12445;SDS011;6287;50.984;7.022;2023-02-08T08:57:22;7.53;;;4.27;;
12445;SDS011;6287;50.984;7.022;2023-02-08T08:59:48;5.73;;;3.83;;
12445;SDS011;6287;50.984;7.022;2023-02-08T09:02:16;5.37;;;3.80;;
12445;SDS011;6287;50.984;7.022;2023-02-08T09:04:43;7.47;;;4.23;;
12445;SDS011;6287;50.984;7.022;2023-02-08T09:07:09;7.67;;;3.93;;
12445;SDS011;6287;50.984;7.022;2023-02-08T09:09:37;4.60;;;3.17;;
12445;SDS011;6287;50.984;7.022;2023-02-08T09:12:05;7.73;;;3.70;;
12445;SDS011;6287;50.984;7.022;2023-02-08T09:14:33;9.53;;;4.10;;
12445;SDS011;6287;50.984;7.022;2023-02-08T09:17:01;6.70;;;3.70;;
12445;SDS011;6287;50.984;7.022;2023-02-08T09:19:26;6.53;;;3.77;;
12445;SDS011;6287;50.984;7.022;2023-02-08T09:21:53;5.40;;;3.40;;
12445;SDS011;6287;50.984;7.022;2023-02-08T09:24:19;4.57;;;3.70;;
12445;SDS011;6287;50.984;7.022;2023-02-08T09:26:47;5.27;;;3.90;;
12445;SDS011;6287;50.984;7.022;2023-02-08T09:29:17;7.80;;;3.63;;
12445;SDS011;6287;50.984;7.022;2023-02-08T09:31:43;7.17;;;3.40;;
12445;SDS011;6287;50.984;7.022;2023-02-08T09:34:11;6.80;;;3.70;;
12445;SDS011;6287;50.984;7.022;2023-02-08T09:36:41;5.53;;;3.47;;
12445;SDS011;6287;50.984;7.022;2023-02-08T09:39:11;6.53;;;3.80;;
12445;SDS011;6287;50.984;7.022;2023-02-08T09:44:22;5.40;;;3.17;;
12445;SDS011;6287;50.984;7.022;2023-02-08T09:50:05;6.73;;;3.73;;
12445;SDS011;6287;50.984;7.022;2023-02-08T09:52:44;8.30;;;3.43;;
12445;SDS011;6287;50.984;7.022;2023-02-08T09:55:28;4.67;;;3.40;;
12445;SDS011;6287;50.984;7.022;2023-02-08T09:57:59;6.37;;;3.17;;
12445;SDS011;6287;50.984;7.022;2023-02-08T10:00:33;3.93;;;2.93;;
12445;SDS011;6287;50.984;7.022;2023-02-08T10:03:04;4.93;;;2.90;;
12445;SDS011;6287;50.984;7.022;2023-02-08T10:05:53;3.60;;;2.70;;
12445;SDS011;6287;50.984;7.022;2023-02-08T10:08:24;5.23;;;3.57;;
12445;SDS011;6287;50.984;7.022;2023-02-08T10:10:54;4.67;;;3.07;;
12445;SDS011;6287;50.984;7.022;2023-02-08T10:16:17;3.30;;;2.70;;
12445;SDS011;6287;50.984;7.022;2023-02-08T10:26:53;6.03;;;3.30;;
12445;SDS011;6287;50.984;7.022;2023-02-08T10:34:45;5.67;;;2.67;;
12445;SDS011;6287;50.984;7.022;2023-02-08T10:37:19;4.37;;;3.00;;
12445;SDS011;6287;50.984;7.022;2023-02-08T10:39:52;4.07;;;2.87;;
12445;SDS011;6287;50.984;7.022;2023-02-08T10:42:21;4.13;;;2.77;;
12445;SDS011;6287;50.984;7.022;2023-02-08T10:50:18;4.60;;;2.73;;
12445;SDS011;6287;50.984;7.022;2023-02-08T10:52:53;2.90;;;2.10;;
12445;SDS011;6287;50.984;7.022;2023-02-08T10:55:21;2.83;;;2.23;;
12445;SDS011;6287;50.984;7.022;2023-02-08T10:57:49;2.73;;;2.47;;
12445;SDS011;6287;50.984;7.022;2023-02-08T11:00:24;3.50;;;2.17;;
12445;SDS011;6287;50.984;7.022;2023-02-08T11:03:15;3.27;;;2.17;;
12445;SDS011;6287;50.984;7.022;2023-02-08T11:05:42;3.87;;;2.40;;
12445;SDS011;6287;50.984;7.022;2023-02-08T11:08:13;2.33;;;2.13;;
12445;SDS011;6287;50.984;7.022;2023-02-08T11:10:59;4.00;;;2.47;;
12445;SDS011;6287;50.984;7.022;2023-02-08T11:16:04;3.43;;;2.23;;
12445;SDS011;6287;50.984;7.022;2023-02-08T11:18:34;2.40;;;1.90;;
12445;SDS011;6287;50.984;7.022;2023-02-08T11:21:21;2.33;;;2.13;;
12445;SDS011;6287;50.984;7.022;2023-02-08T11:23:53;4.13;;;1.93;;
12445;SDS011;6287;50.984;7.022;2023-02-08T11:26:30;2.47;;;2.27;;
12445;SDS011;6287;50.984;7.022;2023-02-08T11:29:04;2.40;;;1.97;;
12445;SDS011;6287;50.984;7.022;2023-02-08T11:36:50;2.80;;;1.97;;
12445;SDS011;6287;50.984;7.022;2023-02-08T11:39:19;2.03;;;1.80;;
12445;SDS011;6287;50.984;7.022;2023-02-08T11:41:52;2.13;;;1.93;;
12445;SDS011;6287;50.984;7.022;2023-02-08T11:44:33;3.97;;;2.37;;
12445;SDS011;6287;50.984;7.022;2023-02-08T11:47:09;2.33;;;1.97;;
12445;SDS011;6287;50.984;7.022;2023-02-08T11:49:41;3.00;;;2.10;;
12445;SDS011;6287;50.984;7.022;2023-02-08T11:54:45;2.77;;;2.20;;
12445;SDS011;6287;50.984;7.022;2023-02-08T11:57:24;2.10;;;1.90;;
12445;SDS011;6287;50.984;7.022;2023-02-08T12:00:15;2.90;;;2.20;;
12445;SDS011;6287;50.984;7.022;2023-02-08T12:02:44;2.43;;;1.90;;
12445;SDS011;6287;50.984;7.022;2023-02-08T12:05:16;2.80;;;2.50;;
12445;SDS011;6287;50.984;7.022;2023-02-08T12:11:06;2.20;;;2.00;;
12445;SDS011;6287;50.984;7.022;2023-02-08T12:13:57;3.00;;;2.10;;
12445;SDS011;6287;50.984;7.022;2023-02-08T12:27:33;2.17;;;1.97;;
12445;SDS011;6287;50.984;7.022;2023-02-08T12:35:56;2.70;;;2.17;;
12445;SDS011;6287;50.984;7.022;2023-02-08T12:41:30;3.70;;;2.47;;
12445;SDS011;6287;50.984;7.022;2023-02-08T12:44:23;1.80;;;1.43;;
12445;SDS011;6287;50.984;7.022;2023-02-08T12:47:11;1.70;;;1.60;;
12445;SDS011;6287;50.984;7.022;2023-02-08T12:55:54;2.50;;;1.83;;
12445;SDS011;6287;50.984;7.022;2023-02-08T13:01:13;1.90;;;1.80;;
12445;SDS011;6287;50.984;7.022;2023-02-08T13:04:09;2.87;;;2.00;;
12445;SDS011;6287;50.984;7.022;2023-02-08T13:06:40;2.60;;;1.90;;
12445;SDS011;6287;50.984;7.022;2023-02-08T13:17:21;3.47;;;1.87;;
12445;SDS011;6287;50.984;7.022;2023-02-08T13:20:01;2.90;;;2.30;;
12445;SDS011;6287;50.984;7.022;2023-02-08T13:22:47;3.50;;;1.97;;
12445;SDS011;6287;50.984;7.022;2023-02-08T13:25:19;2.40;;;1.93;;
12445;SDS011;6287;50.984;7.022;2023-02-08T13:28:03;2.00;;;1.80;;
12445;SDS011;6287;50.984;7.022;2023-02-08T13:30:31;2.70;;;2.00;;
12445;SDS011;6287;50.984;7.022;2023-02-08T13:32:59;1.83;;;1.53;;
12445;SDS011;6287;50.984;7.022;2023-02-08T13:35:40;1.87;;;1.70;;
12445;SDS011;6287;50.984;7.022;2023-02-08T13:38:15;1.90;;;1.80;;
12445;SDS011;6287;50.984;7.022;2023-02-08T13:41:03;3.73;;;1.90;;
12445;SDS011;6287;50.984;7.022;2023-02-08T13:43:51;2.43;;;2.13;;
12445;SDS011;6287;50.984;7.022;2023-02-08T13:46:23;2.73;;;1.70;;
12445;SDS011;6287;50.984;7.022;2023-02-08T13:48:52;1.70;;;1.60;;
12445;SDS011;6287;50.984;7.022;2023-02-08T13:59:24;1.80;;;1.60;;
12445;SDS011;6287;50.984;7.022;2023-02-08T14:04:50;2.17;;;1.83;;
12445;SDS011;6287;50.984;7.022;2023-02-08T14:07:28;2.17;;;1.77;;
12445;SDS011;6287;50.984;7.022;2023-02-08T14:15:26;2.20;;;2.00;;
12445;SDS011;6287;50.984;7.022;2023-02-08T14:18:23;4.17;;;2.00;;
12445;SDS011;6287;50.984;7.022;2023-02-08T14:20:58;1.93;;;1.70;;
12445;SDS011;6287;50.984;7.022;2023-02-08T14:23:34;2.57;;;1.90;;
12445;SDS011;6287;50.984;7.022;2023-02-08T14:26:06;2.30;;;2.10;;
12445;SDS011;6287;50.984;7.022;2023-02-08T14:28:44;1.90;;;1.70;;
12445;SDS011;6287;50.984;7.022;2023-02-08T14:31:12;2.23;;;1.70;;
12445;SDS011;6287;50.984;7.022;2023-02-08T14:33:49;1.60;;;1.50;;
12445;SDS011;6287;50.984;7.022;2023-02-08T14:36:27;1.77;;;1.50;;
12445;SDS011;6287;50.984;7.022;2023-02-08T14:39:05;3.53;;;1.80;;
12445;SDS011;6287;50.984;7.022;2023-02-08T14:47:12;1.63;;;1.53;;
12445;SDS011;6287;50.984;7.022;2023-02-08T14:49:42;3.00;;;1.97;;
12445;SDS011;6287;50.984;7.022;2023-02-08T14:52:19;1.67;;;1.50;;
12445;SDS011;6287;50.984;7.022;2023-02-08T14:54:55;2.00;;;1.80;;
12445;SDS011;6287;50.984;7.022;2023-02-08T14:57:32;1.53;;;1.43;;
12445;SDS011;6287;50.984;7.022;2023-02-08T15:00:01;1.50;;;1.40;;
12445;SDS011;6287;50.984;7.022;2023-02-08T15:02:40;2.30;;;1.80;;
12445;SDS011;6287;50.984;7.022;2023-02-08T15:05:17;3.77;;;1.60;;
12445;SDS011;6287;50.984;7.022;2023-02-08T15:10:19;2.43;;;1.50;;
12445;SDS011;6287;50.984;7.022;2023-02-08T15:12:48;2.67;;;2.00;;
12445;SDS011;6287;50.984;7.022;2023-02-08T15:15:21;1.93;;;1.60;;
12445;SDS011;6287;50.984;7.022;2023-02-08T15:18:00;1.77;;;1.30;;
12445;SDS011;6287;50.984;7.022;2023-02-08T15:20:31;1.50;;;1.20;;
12445;SDS011;6287;50.984;7.022;2023-02-08T15:25:29;1.67;;;1.40;;
12445;SDS011;6287;50.984;7.022;2023-02-08T15:28:18;1.70;;;1.10;;
12445;SDS011;6287;50.984;7.022;2023-02-08T15:33:33;1.97;;;1.37;;
12445;SDS011;6287;50.984;7.022;2023-02-08T15:36:07;1.63;;;1.30;;
12445;SDS011;6287;50.984;7.022;2023-02-08T15:38:51;2.70;;;1.50;;
12445;SDS011;6287;50.984;7.022;2023-02-08T15:41:26;1.37;;;1.23;;
12445;SDS011;6287;50.984;7.022;2023-02-08T15:44:20;2.50;;;1.23;;
12445;SDS011;6287;50.984;7.022;2023-02-08T15:46:48;3.17;;;1.40;;
12445;SDS011;6287;50.984;7.022;2023-02-08T15:49:16;1.70;;;1.27;;
12445;SDS011;6287;50.984;7.022;2023-02-08T15:51:53;2.50;;;1.27;;
12445;SDS011;6287;50.984;7.022;2023-02-08T15:54:20;1.27;;;1.23;;
12445;SDS011;6287;50.984;7.022;2023-02-08T15:59:23;1.97;;;1.60;;
12445;SDS011;6287;50.984;7.022;2023-02-08T16:01:56;1.87;;;1.47;;
12445;SDS011;6287;50.984;7.022;2023-02-08T16:04:24;2.13;;;1.40;;
12445;SDS011;6287;50.984;7.022;2023-02-08T16:06:52;1.53;;;1.43;;
12445;SDS011;6287;50.984;7.022;2023-02-08T16:09:25;1.37;;;1.00;;
12445;SDS011;6287;50.984;7.022;2023-02-08T16:11:54;1.67;;;1.50;;
12445;SDS011;6287;50.984;7.022;2023-02-08T16:14:24;2.93;;;2.03;;
12445;SDS011;6287;50.984;7.022;2023-02-08T16:16:54;3.10;;;1.63;;
12445;SDS011;6287;50.984;7.022;2023-02-08T16:21:47;1.93;;;1.70;;
12445;SDS011;6287;50.984;7.022;2023-02-08T16:26:42;2.53;;;1.70;;
12445;SDS011;6287;50.984;7.022;2023-02-08T16:34:50;1.90;;;1.60;;
12445;SDS011;6287;50.984;7.022;2023-02-08T16:37:25;2.77;;;1.90;;
12445;SDS011;6287;50.984;7.022;2023-02-08T16:39:55;2.03;;;1.80;;
12445;SDS011;6287;50.984;7.022;2023-02-08T16:42:36;2.83;;;2.07;;
12445;SDS011;6287;50.984;7.022;2023-02-08T16:47:36;2.07;;;1.87;;
12445;SDS011;6287;50.984;7.022;2023-02-08T16:50:04;3.47;;;2.20;;
12445;SDS011;6287;50.984;7.022;2023-02-08T16:52:31;3.90;;;2.50;;
12445;SDS011;6287;50.984;7.022;2023-02-08T16:55:00;3.17;;;2.07;;
12445;SDS011;6287;50.984;7.022;2023-02-08T16:57:41;2.40;;;2.20;;
12445;SDS011;6287;50.984;7.022;2023-02-08T17:00:12;2.87;;;2.13;;
12445;SDS011;6287;50.984;7.022;2023-02-08T17:02:39;3.07;;;2.13;;
12445;SDS011;6287;50.984;7.022;2023-02-08T17:05:04;2.80;;;1.90;;
12445;SDS011;6287;50.984;7.022;2023-02-08T17:07:30;3.20;;;2.37;;
12445;SDS011;6287;50.984;7.022;2023-02-08T17:09:56;2.60;;;1.80;;
12445;SDS011;6287;50.984;7.022;2023-02-08T17:12:22;2.57;;;1.93;;
12445;SDS011;6287;50.984;7.022;2023-02-08T17:14:48;2.77;;;2.03;;
12445;SDS011;6287;50.984;7.022;2023-02-08T17:17:16;2.83;;;2.00;;
12445;SDS011;6287;50.984;7.022;2023-02-08T17:19:46;2.77;;;2.13;;
12445;SDS011;6287;50.984;7.022;2023-02-08T17:22:12;3.30;;;2.20;;
12445;SDS011;6287;50.984;7.022;2023-02-08T17:24:44;4.50;;;2.63;;
12445;SDS011;6287;50.984;7.022;2023-02-08T17:27:11;3.97;;;1.93;;
12445;SDS011;6287;50.984;7.022;2023-02-08T17:29:40;3.87;;;2.40;;
12445;SDS011;6287;50.984;7.022;2023-02-08T17:32:08;3.77;;;2.60;;
12445;SDS011;6287;50.984;7.022;2023-02-08T17:34:33;3.27;;;2.33;;
12445;SDS011;6287;50.984;7.022;2023-02-08T17:37:00;4.40;;;2.37;;
12445;SDS011;6287;50.984;7.022;2023-02-08T17:39:26;5.47;;;2.60;;
12445;SDS011;6287;50.984;7.022;2023-02-08T17:41:54;3.57;;;2.07;;
12445;SDS011;6287;50.984;7.022;2023-02-08T17:44:22;4.10;;;2.77;;
12445;SDS011;6287;50.984;7.022;2023-02-08T17:46:50;4.20;;;2.03;;
12445;SDS011;6287;50.984;7.022;2023-02-08T17:49:17;4.95;;;3.00;;
12445;SDS011;6287;50.984;7.022;2023-02-08T17:51:45;4.90;;;3.17;;
12445;SDS011;6287;50.984;7.022;2023-02-08T17:54:11;4.83;;;2.90;;
12445;SDS011;6287;50.984;7.022;2023-02-08T17:56:39;5.17;;;3.07;;
12445;SDS011;6287;50.984;7.022;2023-02-08T17:59:07;4.40;;;3.33;;
12445;SDS011;6287;50.984;7.022;2023-02-08T18:01:36;3.83;;;3.27;;
12445;SDS011;6287;50.984;7.022;2023-02-08T18:04:10;5.20;;;3.00;;